createdAt,value
2019-03-21T00:00:55.764Z,22.52
2019-03-21T00:02:01.842Z,22.50
2019-03-21T00:03:06.817Z,23.57
2019-03-21T00:04:13.564Z,22.32
2019-03-21T00:05:18.571Z,23.50
2019-03-21T00:06:23.496Z,21.70
2019-03-21T00:07:28.381Z,22.70
2019-03-21T00:08:33.321Z,24.63
2019-03-21T00:09:38.785Z,20.10
2019-03-21T00:11:18.007Z,22.80
2019-03-21T00:12:22.867Z,21.03
2019-03-21T00:13:27.848Z,23.07
2019-03-21T00:15:00.512Z,22.90
2019-03-21T00:16:07.253Z,21.35
2019-03-21T00:17:12.452Z,21.73
2019-03-21T00:18:18.134Z,22.43
2019-03-21T00:19:23.206Z,26.10
2019-03-21T00:20:28.105Z,24.30
2019-03-21T00:21:33.054Z,21.97
2019-03-21T00:22:37.969Z,24.00
2019-03-21T00:23:43.087Z,23.87
2019-03-21T00:24:48.024Z,23.93
2019-03-21T00:25:53.096Z,21.60
2019-03-21T00:26:58.062Z,23.55
2019-03-21T00:28:03.002Z,22.80
2019-03-21T00:29:09.398Z,24.40
2019-03-21T00:30:18.532Z,22.27
2019-03-21T00:31:23.377Z,22.33
2019-03-21T00:32:28.342Z,22.93
2019-03-21T00:33:33.233Z,25.97
2019-03-21T00:34:38.388Z,21.93
2019-03-21T00:35:43.416Z,23.15
2019-03-21T00:36:48.413Z,25.80
2019-03-21T00:37:53.440Z,24.03
2019-03-21T00:38:58.318Z,22.67
2019-03-21T00:40:03.940Z,25.43
2019-03-21T00:41:08.947Z,20.40
2019-03-21T00:42:13.830Z,23.00
2019-03-21T00:43:18.692Z,24.43
2019-03-21T00:44:23.641Z,22.93
2019-03-21T00:45:28.675Z,23.27
2019-03-21T00:46:33.584Z,21.27
2019-03-21T00:47:38.420Z,22.87
2019-03-21T00:48:43.344Z,22.67
2019-03-21T00:49:48.509Z,24.92
2019-03-21T00:50:53.432Z,23.37
2019-03-21T00:51:58.347Z,22.53
2019-03-21T00:53:03.591Z,23.50
2019-03-21T00:54:09.219Z,23.57
2019-03-21T00:55:14.371Z,21.33
2019-03-21T00:56:19.261Z,23.00
2019-03-21T00:57:24.134Z,22.67
2019-03-21T00:58:29.028Z,24.00
2019-03-21T00:59:33.952Z,20.80
2019-03-21T01:00:42.424Z,23.65
2019-03-21T01:01:47.323Z,23.53
2019-03-21T01:02:52.363Z,23.47
2019-03-21T01:03:57.244Z,24.37
2019-03-21T01:05:02.360Z,23.65
2019-03-21T01:06:07.555Z,24.90
2019-03-21T01:07:12.516Z,25.77
2019-03-21T01:08:17.395Z,26.07
2019-03-21T01:09:22.273Z,23.13
2019-03-21T01:10:27.320Z,23.37
2019-03-21T01:11:32.234Z,23.63
2019-03-21T01:12:37.096Z,25.37
2019-03-21T01:13:42.014Z,20.23
2019-03-21T01:14:46.927Z,21.17
2019-03-21T01:15:51.874Z,29.40
2019-03-21T01:16:56.766Z,23.23
2019-03-21T01:18:01.648Z,24.07
2019-03-21T01:19:06.501Z,32.20
2019-03-21T01:20:13.324Z,20.45
2019-03-21T01:21:18.264Z,21.83
2019-03-21T01:22:23.161Z,24.47
2019-03-21T01:23:28.030Z,20.70
2019-03-21T01:24:32.907Z,22.07
2019-03-21T01:25:41.167Z,22.50
2019-03-21T01:26:46.014Z,22.00
2019-03-21T01:27:50.933Z,21.42
2019-03-21T01:28:55.825Z,22.90
2019-03-21T01:30:00.759Z,23.93
2019-03-21T01:31:05.634Z,22.63
2019-03-21T01:32:11.013Z,23.27
2019-03-21T01:33:15.906Z,22.23
2019-03-21T01:34:20.779Z,22.93
2019-03-21T01:35:25.651Z,21.67
2019-03-21T01:36:30.500Z,21.83
2019-03-21T01:37:35.472Z,20.80
2019-03-21T01:38:43.091Z,23.70
2019-03-21T01:39:47.960Z,20.70
2019-03-21T01:40:53.048Z,22.27
2019-03-21T01:41:57.985Z,20.77
2019-03-21T01:43:05.016Z,20.73
2019-03-21T01:44:13.023Z,23.00
2019-03-21T01:45:19.679Z,21.77
2019-03-21T01:46:24.676Z,18.87
2019-03-21T01:47:29.629Z,20.90
2019-03-21T01:48:35.403Z,20.03
2019-03-21T01:49:40.368Z,18.27
2019-03-21T01:50:45.690Z,19.10
2019-03-21T01:51:50.855Z,23.10
2019-03-21T01:52:55.771Z,17.97
2019-03-21T01:54:00.759Z,21.80
2019-03-21T01:55:05.796Z,19.93
2019-03-21T01:56:10.918Z,21.30
2019-03-21T01:57:16.065Z,19.63
2019-03-21T01:58:21.226Z,20.03
2019-03-21T01:59:26.070Z,18.80
2019-03-21T02:00:33.460Z,21.07
2019-03-21T02:01:38.512Z,19.90
2019-03-21T02:02:43.766Z,18.33
2019-03-21T02:03:48.621Z,22.97
2019-03-21T02:04:53.562Z,19.60
2019-03-21T02:05:58.624Z,18.80
2019-03-21T02:07:03.474Z,21.37
2019-03-21T02:08:08.481Z,22.33
2019-03-21T02:09:13.614Z,17.97
2019-03-21T02:10:18.583Z,20.13
2019-03-21T02:11:23.628Z,18.37
2019-03-21T02:12:28.733Z,21.53
2019-03-21T02:13:33.862Z,21.30
2019-03-21T02:14:38.762Z,20.47
2019-03-21T02:15:43.703Z,21.80
2019-03-21T02:16:48.578Z,22.87
2019-03-21T02:17:53.700Z,21.07
2019-03-21T02:18:58.605Z,21.13
2019-03-21T02:20:03.496Z,21.27
2019-03-21T02:21:08.380Z,22.37
2019-03-21T02:22:15.999Z,22.40
2019-03-21T02:23:20.936Z,18.47
2019-03-21T02:24:25.860Z,20.30
2019-03-21T02:25:30.960Z,20.70
2019-03-21T02:26:35.805Z,20.47
2019-03-21T02:27:40.728Z,20.23
2019-03-21T02:28:45.655Z,22.07
2019-03-21T02:29:50.982Z,21.43
2019-03-21T02:30:55.961Z,19.63
2019-03-21T02:32:00.869Z,21.63
2019-03-21T02:33:12.356Z,18.30
2019-03-21T02:34:17.330Z,19.23
2019-03-21T02:35:22.240Z,21.17
2019-03-21T02:36:27.398Z,20.03
2019-03-21T02:37:32.933Z,19.63
2019-03-21T02:38:37.965Z,20.70
2019-03-21T02:39:43.025Z,20.83
2019-03-21T02:40:47.958Z,25.67
2019-03-21T02:41:52.951Z,19.67
2019-03-21T02:42:58.002Z,23.60
2019-03-21T02:44:02.995Z,22.83
2019-03-21T02:45:09.778Z,19.73
2019-03-21T02:46:14.879Z,20.23
2019-03-21T02:47:19.831Z,19.57
2019-03-21T02:48:24.812Z,21.53
2019-03-21T02:49:29.694Z,21.33
2019-03-21T02:50:34.743Z,18.40
2019-03-21T02:51:40.175Z,20.30
2019-03-21T02:52:45.113Z,18.53
2019-03-21T02:53:50.002Z,19.00
2019-03-21T02:54:54.958Z,19.87
2019-03-21T02:55:59.863Z,20.20
2019-03-21T02:57:04.910Z,18.77
2019-03-21T02:58:10.257Z,19.10
2019-03-21T02:59:15.182Z,23.37
2019-03-21T03:00:21.731Z,23.53
2019-03-21T03:01:26.620Z,21.77
2019-03-21T03:02:31.608Z,19.00
2019-03-21T03:03:36.749Z,19.13
2019-03-21T03:04:41.865Z,21.05
2019-03-21T03:05:46.897Z,19.63
2019-03-21T03:06:52.040Z,18.70
2019-03-21T03:07:57.014Z,20.77
2019-03-21T03:09:01.967Z,17.40
2019-03-21T03:10:09.073Z,20.50
2019-03-21T03:11:14.245Z,23.30
2019-03-21T03:12:19.130Z,20.90
2019-03-21T03:13:24.008Z,19.57
2019-03-21T03:14:29.042Z,21.83
2019-03-21T03:15:34.156Z,19.67
2019-03-21T03:16:39.329Z,22.70
2019-03-21T03:17:44.176Z,18.50
2019-03-21T03:18:49.120Z,21.83
2019-03-21T03:19:53.984Z,20.67
2019-03-21T03:20:58.811Z,19.63
2019-03-21T03:22:03.675Z,21.97
2019-03-21T03:23:08.989Z,21.50
2019-03-21T03:24:14.044Z,21.13
2019-03-21T03:25:19.012Z,19.67
2019-03-21T03:26:24.111Z,26.00
2019-03-21T03:27:29.021Z,20.73
2019-03-21T03:28:34.145Z,24.30
2019-03-21T03:29:39.030Z,22.20
2019-03-21T03:30:43.962Z,19.90
2019-03-21T03:31:48.929Z,21.13
2019-03-21T03:32:57.324Z,23.17
2019-03-21T03:34:02.315Z,22.33
2019-03-21T03:35:08.985Z,22.00
2019-03-21T03:36:14.341Z,22.30
2019-03-21T03:37:19.215Z,21.10
2019-03-21T03:38:24.112Z,22.83
2019-03-21T03:39:29.032Z,21.77
2019-03-21T03:40:36.939Z,24.33
2019-03-21T03:41:41.847Z,23.63
2019-03-21T03:42:47.025Z,20.97
2019-03-21T03:43:51.910Z,29.33
2019-03-21T03:44:56.742Z,24.03
2019-03-21T03:46:01.742Z,22.27
2019-03-21T03:47:06.864Z,22.43
2019-03-21T03:48:11.702Z,24.50
2019-03-21T03:49:16.602Z,23.60
2019-03-21T03:50:21.636Z,21.37
2019-03-21T03:51:26.667Z,20.13
2019-03-21T03:52:31.588Z,24.00
2019-03-21T03:53:36.572Z,25.50
2019-03-21T03:54:41.703Z,22.13
2019-03-21T03:55:46.795Z,21.53
2019-03-21T03:56:51.697Z,20.27
2019-03-21T03:57:57.425Z,24.57
2019-03-21T03:59:02.844Z,22.93
2019-03-21T04:00:09.854Z,21.77
2019-03-21T04:01:14.826Z,26.93
2019-03-21T04:02:19.689Z,23.60
2019-03-21T04:03:24.722Z,21.80
2019-03-21T04:04:29.884Z,22.97
2019-03-21T04:05:34.763Z,23.43
2019-03-21T04:06:39.671Z,23.03
2019-03-21T04:07:44.559Z,23.97
2019-03-21T04:08:49.587Z,23.63
2019-03-21T04:09:54.583Z,21.47
2019-03-21T04:10:59.574Z,21.67
2019-03-21T04:12:04.496Z,23.03
2019-03-21T04:13:09.424Z,27.57
2019-03-21T04:14:14.315Z,24.70
2019-03-21T04:15:19.184Z,25.17
2019-03-21T04:16:24.073Z,22.43
2019-03-21T04:17:28.991Z,22.47
2019-03-21T04:18:33.859Z,22.00
2019-03-21T04:19:38.746Z,26.27
2019-03-21T04:20:44.930Z,23.53
2019-03-21T04:21:49.914Z,23.30
2019-03-21T04:22:55.117Z,22.47
2019-03-21T04:24:00.287Z,27.50
2019-03-21T04:25:05.373Z,23.10
2019-03-21T04:26:19.540Z,26.40
2019-03-21T04:27:24.541Z,24.77
2019-03-21T04:28:29.718Z,21.27
2019-03-21T04:29:34.607Z,26.70
2019-03-21T04:30:39.544Z,26.60
2019-03-21T04:31:44.715Z,25.80
2019-03-21T04:32:49.640Z,24.87
2019-03-21T04:33:56.052Z,27.50
2019-03-21T04:35:00.915Z,24.47
2019-03-21T04:36:05.868Z,24.23
2019-03-21T04:37:10.793Z,24.83
2019-03-21T04:38:15.704Z,27.17
2019-03-21T04:39:20.651Z,26.53
2019-03-21T04:40:25.593Z,23.57
2019-03-21T04:41:30.497Z,25.03
2019-03-21T04:42:35.464Z,24.33
2019-03-21T04:43:40.310Z,24.93
2019-03-21T04:44:45.449Z,27.63
2019-03-21T04:45:50.394Z,25.83
2019-03-21T04:46:55.250Z,26.83
2019-03-21T04:48:00.201Z,25.13
2019-03-21T04:49:05.332Z,28.03
2019-03-21T04:50:12.728Z,25.30
2019-03-21T04:51:17.759Z,24.57
2019-03-21T04:52:22.647Z,26.60
2019-03-21T04:53:27.610Z,26.20
2019-03-21T04:54:32.621Z,28.87
2019-03-21T04:55:37.593Z,23.13
2019-03-21T04:56:42.516Z,27.77
2019-03-21T04:57:47.413Z,27.13
2019-03-21T04:58:52.318Z,26.33
2019-03-21T04:59:57.158Z,28.03
2019-03-21T05:01:02.104Z,28.13
2019-03-21T05:02:07.117Z,29.97
2019-03-21T05:03:12.137Z,27.60
2019-03-21T05:04:17.088Z,22.67
2019-03-21T05:05:22.046Z,27.77
2019-03-21T05:06:26.938Z,27.20
2019-03-21T05:07:31.861Z,26.00
2019-03-21T05:08:36.746Z,26.83
2019-03-21T05:09:41.861Z,27.53
2019-03-21T05:10:46.727Z,26.03
2019-03-21T05:11:51.682Z,26.90
2019-03-21T05:12:56.554Z,28.23
2019-03-21T05:14:01.537Z,27.83
2019-03-21T05:15:08.375Z,29.53
2019-03-21T05:16:14.862Z,27.67
2019-03-21T05:17:20.152Z,26.70
2019-03-21T05:18:31.766Z,24.23
2019-03-21T05:19:36.788Z,28.03
2019-03-21T05:20:41.733Z,26.70
2019-03-21T05:21:46.976Z,27.53
2019-03-21T05:22:52.046Z,27.10
2019-03-21T05:23:57.061Z,25.97
2019-03-21T05:25:02.013Z,24.43
2019-03-21T05:26:07.141Z,23.30
2019-03-21T05:27:12.151Z,26.10
2019-03-21T05:28:17.130Z,20.80
2019-03-21T05:29:22.165Z,25.33
2019-03-21T05:30:34.116Z,23.77
2019-03-21T05:31:39.069Z,24.77
2019-03-21T05:32:43.949Z,26.93
2019-03-21T05:33:48.961Z,20.67
2019-03-21T05:34:53.859Z,25.57
2019-03-21T05:35:58.811Z,22.97
2019-03-21T05:37:03.730Z,23.60
2019-03-21T05:38:08.669Z,22.93
2019-03-21T05:39:13.872Z,23.60
2019-03-21T05:40:18.955Z,27.33
2019-03-21T05:41:24.005Z,24.73
2019-03-21T05:42:29.572Z,22.97
2019-03-21T05:43:41.660Z,21.87
2019-03-21T05:44:46.785Z,23.00
2019-03-21T05:45:51.677Z,28.17
2019-03-21T05:46:56.644Z,22.23
2019-03-21T05:48:01.555Z,22.13
2019-03-21T05:49:06.578Z,23.00
2019-03-21T05:50:14.967Z,24.90
2019-03-21T05:51:19.583Z,25.73
2019-03-21T05:52:24.524Z,21.60
2019-03-21T05:53:29.385Z,24.80
2019-03-21T05:54:34.422Z,23.70
2019-03-21T05:55:39.399Z,23.43
2019-03-21T05:56:44.281Z,23.80
2019-03-21T05:57:49.168Z,24.77
2019-03-21T05:58:54.439Z,27.87
2019-03-21T05:59:59.356Z,23.87
2019-03-21T06:01:04.607Z,22.97
2019-03-21T06:02:09.510Z,22.07
2019-03-21T06:03:27.257Z,22.53
2019-03-21T06:04:32.359Z,25.07
2019-03-21T06:05:37.510Z,25.70
2019-03-21T06:06:49.547Z,21.00
2019-03-21T06:08:09.975Z,24.90
2019-03-21T06:09:17.112Z,25.77
2019-03-21T06:10:22.518Z,24.53
2019-03-21T06:11:27.503Z,21.87
2019-03-21T06:12:41.634Z,23.27
2019-03-21T06:13:46.725Z,22.80
2019-03-21T06:14:55.162Z,21.30
2019-03-21T06:18:12.659Z,23.17
2019-03-21T06:19:49.965Z,23.53
2019-03-21T06:21:03.919Z,23.00
2019-03-21T06:22:49.470Z,27.07
2019-03-21T06:24:36.470Z,21.33
2019-03-21T06:26:14.956Z,25.07
2019-03-21T06:27:36.866Z,26.43
2019-03-21T06:28:41.871Z,26.13
2019-03-21T06:29:47.690Z,25.43
2019-03-21T06:30:52.685Z,25.53
2019-03-21T06:31:57.577Z,20.87
2019-03-21T06:33:02.524Z,23.63
2019-03-21T06:34:07.390Z,25.03
2019-03-21T06:35:22.389Z,25.57
2019-03-21T06:36:27.346Z,21.97
2019-03-21T06:37:32.390Z,25.33
2019-03-21T06:38:37.319Z,23.80
2019-03-21T06:39:42.272Z,26.70
2019-03-21T06:40:47.254Z,23.75
2019-03-21T06:41:52.153Z,20.53
2019-03-21T06:42:57.033Z,21.17
2019-03-21T06:44:01.976Z,24.00
2019-03-21T06:45:06.941Z,22.80
2019-03-21T06:46:12.128Z,18.52
2019-03-21T06:47:17.109Z,21.90
2019-03-21T06:48:22.300Z,22.20
2019-03-21T06:49:27.162Z,20.90
2019-03-21T06:50:32.035Z,23.83
2019-03-21T06:51:36.932Z,23.20
2019-03-21T06:52:41.825Z,17.12
2019-03-21T06:53:46.796Z,19.37
2019-03-21T06:54:52.567Z,19.85
2019-03-21T06:55:58.224Z,20.50
2019-03-21T06:57:04.066Z,19.80
2019-03-21T06:58:09.689Z,21.12
2019-03-21T06:59:15.219Z,19.23
2019-03-21T07:00:20.860Z,18.15
2019-03-21T07:01:26.443Z,20.90
2019-03-21T07:02:31.627Z,18.57
2019-03-21T07:03:37.247Z,18.23
2019-03-21T07:04:42.794Z,20.50
2019-03-21T07:05:48.470Z,17.92
2019-03-21T07:06:54.111Z,17.62
2019-03-21T07:07:59.998Z,22.10
2019-03-21T07:09:07.762Z,17.70
2019-03-21T07:10:14.091Z,22.52
2019-03-21T07:11:19.767Z,19.77
2019-03-21T07:12:25.370Z,19.07
2019-03-21T07:13:32.048Z,19.20
2019-03-21T07:14:37.616Z,19.27
2019-03-21T07:15:43.123Z,21.12
2019-03-21T07:16:59.808Z,19.67
2019-03-21T07:17:55.973Z,21.37
2019-03-21T07:19:01.536Z,23.27
2019-03-21T07:20:07.798Z,22.67
2019-03-21T07:21:13.346Z,18.20
2019-03-21T07:22:18.728Z,19.10
2019-03-21T07:23:24.024Z,23.42
2019-03-21T07:24:29.270Z,19.55
2019-03-21T07:25:34.421Z,19.48
2019-03-21T07:26:39.706Z,18.37
2019-03-21T07:27:46.728Z,20.57
2019-03-21T07:28:51.957Z,22.40
2019-03-21T07:29:57.057Z,19.12
2019-03-21T07:31:02.500Z,19.48
2019-03-21T07:32:07.614Z,25.05
2019-03-21T07:33:13.011Z,22.15
2019-03-21T07:34:18.980Z,25.02
2019-03-21T07:35:24.095Z,21.77
2019-03-21T07:36:29.179Z,22.62
2019-03-21T07:37:34.335Z,19.00
2019-03-21T07:38:39.267Z,21.17
2019-03-21T07:39:44.206Z,19.98
2019-03-21T07:40:49.153Z,23.77
2019-03-21T07:41:54.129Z,19.40
2019-03-21T07:42:59.115Z,19.48
2019-03-21T07:44:04.279Z,20.85
2019-03-21T07:45:09.737Z,21.68
2019-03-21T07:46:15.063Z,22.10
2019-03-21T07:47:19.973Z,19.30
2019-03-21T07:48:24.932Z,22.35
2019-03-21T07:49:29.880Z,21.00
2019-03-21T07:50:34.810Z,19.55
2019-03-21T07:51:40.059Z,19.77
2019-03-21T07:52:44.944Z,20.12
2019-03-21T07:53:49.945Z,23.30
2019-03-21T07:54:55.166Z,19.95
2019-03-21T07:56:00.295Z,17.07
2019-03-21T07:57:05.259Z,20.97
2019-03-21T07:58:10.318Z,18.27
2019-03-21T07:59:15.469Z,20.10
2019-03-21T08:00:20.386Z,19.25
2019-03-21T08:01:25.306Z,22.45
2019-03-21T08:02:30.396Z,19.00
2019-03-21T08:03:35.436Z,24.60
2019-03-21T08:04:40.414Z,17.62
2019-03-21T08:05:45.525Z,18.57
2019-03-21T08:06:50.374Z,19.70
2019-03-21T08:07:55.286Z,21.95
2019-03-21T08:09:00.271Z,18.50
2019-03-21T08:10:06.463Z,19.52
2019-03-21T08:11:11.605Z,18.23
2019-03-21T08:12:16.646Z,20.57
2019-03-21T08:13:21.684Z,16.37
2019-03-21T08:14:26.663Z,20.65
2019-03-21T08:15:31.630Z,19.52
2019-03-21T08:16:36.658Z,17.95
2019-03-21T08:17:41.621Z,18.82
2019-03-21T08:18:46.604Z,19.17
2019-03-21T08:19:51.797Z,17.95
2019-03-21T08:20:59.925Z,20.75
2019-03-21T08:22:03.517Z,18.30
2019-03-21T08:23:08.573Z,17.92
2019-03-21T08:24:13.653Z,18.87
2019-03-21T08:25:18.647Z,21.70
2019-03-21T08:26:23.934Z,18.35
2019-03-21T08:27:28.922Z,18.82
2019-03-21T08:28:34.034Z,19.32
2019-03-21T08:29:39.063Z,20.37
2019-03-21T08:31:14.379Z,17.77
2019-03-21T08:32:19.377Z,19.23
2019-03-21T08:33:24.515Z,20.25
2019-03-21T08:34:29.442Z,18.85
2019-03-21T08:35:34.343Z,18.15
2019-03-21T08:36:40.115Z,16.85
2019-03-21T08:37:45.149Z,18.67
2019-03-21T08:38:50.161Z,19.07
2019-03-21T08:39:55.200Z,18.17
2019-03-21T08:41:00.360Z,18.60
2019-03-21T08:42:05.337Z,17.65
2019-03-21T08:43:10.428Z,18.00
2019-03-21T08:44:15.474Z,22.95
2019-03-21T08:45:20.641Z,16.80
2019-03-21T08:46:25.665Z,17.27
2019-03-21T08:47:30.723Z,16.50
2019-03-21T08:48:35.998Z,23.57
2019-03-21T08:49:41.115Z,18.02
2019-03-21T08:50:46.226Z,18.57
2019-03-21T08:51:51.206Z,18.75
2019-03-21T08:52:56.468Z,18.27
2019-03-21T08:54:02.315Z,22.07
2019-03-21T08:55:07.429Z,19.98
2019-03-21T08:56:12.605Z,19.05
2019-03-21T08:57:17.627Z,18.10
2019-03-21T08:58:22.662Z,17.82
2019-03-21T08:59:27.930Z,16.70
2019-03-21T09:00:34.391Z,19.35
2019-03-21T09:01:39.712Z,15.68
2019-03-21T09:02:44.793Z,16.93
2019-03-21T09:03:49.800Z,19.02
2019-03-21T09:04:54.880Z,16.35
2019-03-21T09:05:59.826Z,18.17
2019-03-21T09:07:04.876Z,16.80
2019-03-21T09:08:09.985Z,16.87
2019-03-21T09:09:15.011Z,16.20
2019-03-21T09:10:20.181Z,19.07
2019-03-21T09:11:25.282Z,18.42
2019-03-21T09:12:30.371Z,17.42
2019-03-21T09:13:35.396Z,18.55
2019-03-21T09:14:40.307Z,17.17
2019-03-21T09:15:45.296Z,17.52
2019-03-21T09:16:50.337Z,17.12
2019-03-21T09:17:55.595Z,18.30
2019-03-21T09:19:00.664Z,16.97
2019-03-21T09:20:06.292Z,17.95
2019-03-21T09:21:19.761Z,16.75
2019-03-21T09:22:18.107Z,18.23
2019-03-21T09:23:23.205Z,22.70
2019-03-21T09:24:28.268Z,16.02
2019-03-21T09:25:33.362Z,16.45
2019-03-21T09:26:38.461Z,17.15
2019-03-21T09:27:43.551Z,16.82
2019-03-21T09:28:48.555Z,17.27
2019-03-21T09:29:54.043Z,18.50
2019-03-21T09:30:59.142Z,14.95
2019-03-21T09:32:16.884Z,19.48
2019-03-21T09:33:12.269Z,21.25
2019-03-21T09:34:17.350Z,19.27
2019-03-21T09:35:22.400Z,20.37
2019-03-21T09:36:27.496Z,19.75
2019-03-21T09:37:32.608Z,19.90
2019-03-21T09:38:38.028Z,21.77
2019-03-21T09:39:43.719Z,20.12
2019-03-21T09:40:49.377Z,21.80
2019-03-21T09:41:57.409Z,20.70
2019-03-21T09:43:03.380Z,22.35
2019-03-21T09:44:09.270Z,24.30
2019-03-21T09:45:17.482Z,23.40
2019-03-21T09:46:23.301Z,21.65
2019-03-21T09:47:28.757Z,20.48
2019-03-21T09:48:34.322Z,18.95
2019-03-21T09:49:39.743Z,22.67
2019-03-21T09:50:45.262Z,21.50
2019-03-21T09:51:51.315Z,23.10
2019-03-21T09:52:56.921Z,21.70
2019-03-21T09:54:09.761Z,21.75
2019-03-21T09:55:11.769Z,20.05
2019-03-21T09:56:16.828Z,19.10
2019-03-21T09:57:21.956Z,24.15
2019-03-21T09:58:26.988Z,21.02
2019-03-21T09:59:32.032Z,20.92
2019-03-21T10:00:37.551Z,21.00
2019-03-21T10:01:42.586Z,20.65
2019-03-21T10:02:47.687Z,19.95
2019-03-21T10:03:52.925Z,19.92
2019-03-21T10:04:58.003Z,20.75
2019-03-21T10:06:03.189Z,25.80
2019-03-21T10:07:08.357Z,21.30
2019-03-21T10:08:13.478Z,20.85
2019-03-21T10:09:18.641Z,20.92
2019-03-21T10:10:29.129Z,19.17
2019-03-21T10:11:34.172Z,23.18
2019-03-21T10:12:39.340Z,18.55
2019-03-21T10:13:44.431Z,19.73
2019-03-21T10:14:49.527Z,19.95
2019-03-21T10:15:54.766Z,23.67
2019-03-21T10:16:59.838Z,22.98
2019-03-21T10:18:05.446Z,18.87
2019-03-21T10:19:12.729Z,20.30
2019-03-21T10:20:17.790Z,17.65
2019-03-21T10:21:22.813Z,17.40
2019-03-21T10:22:27.997Z,18.23
2019-03-21T10:23:33.629Z,17.40
2019-03-21T10:24:41.157Z,17.15
2019-03-21T10:25:46.550Z,18.30
2019-03-21T10:26:51.643Z,17.60
2019-03-21T10:27:57.574Z,19.32
2019-03-21T10:29:02.597Z,17.02
2019-03-21T10:30:15.702Z,19.82
2019-03-21T10:31:20.745Z,18.62
2019-03-21T10:32:25.945Z,15.05
2019-03-21T10:33:30.957Z,15.50
2019-03-21T10:34:35.988Z,16.37
2019-03-21T10:35:41.005Z,16.93
2019-03-21T10:36:46.331Z,14.83
2019-03-21T10:37:52.524Z,16.42
2019-03-21T10:38:58.078Z,17.73
2019-03-21T10:40:03.474Z,13.70
2019-03-21T10:41:08.892Z,16.00
2019-03-21T10:42:14.087Z,17.48
2019-03-21T10:43:19.099Z,21.75
2019-03-21T10:44:25.713Z,18.98
2019-03-21T10:45:30.771Z,15.85
2019-03-21T10:46:35.899Z,16.57
2019-03-21T10:47:41.005Z,16.40
2019-03-21T10:48:46.171Z,15.83
2019-03-21T10:49:51.793Z,15.25
2019-03-21T10:50:57.297Z,15.53
2019-03-21T10:52:02.887Z,17.02
2019-03-21T10:53:12.272Z,21.80
2019-03-21T10:54:19.187Z,18.40
2019-03-21T10:55:28.849Z,17.85
2019-03-21T10:56:33.890Z,23.95
2019-03-21T10:57:39.098Z,19.62
2019-03-21T10:58:44.261Z,16.37
2019-03-21T10:59:49.295Z,18.37
2019-03-21T11:00:54.498Z,18.07
2019-03-21T11:02:07.326Z,17.92
2019-03-21T11:03:06.696Z,17.92
2019-03-21T11:04:12.176Z,18.25
2019-03-21T11:05:17.485Z,18.75
2019-03-21T11:06:22.623Z,19.07
2019-03-21T11:07:27.715Z,15.88
2019-03-21T11:08:32.864Z,16.15
2019-03-21T11:09:37.938Z,18.10
2019-03-21T11:10:42.962Z,19.73
2019-03-21T11:11:47.886Z,16.67
2019-03-21T11:12:52.929Z,15.83
2019-03-21T11:13:57.916Z,18.65
2019-03-21T11:15:02.874Z,16.12
2019-03-21T11:16:07.970Z,16.25
2019-03-21T11:17:13.100Z,14.23
2019-03-21T11:18:18.049Z,18.15
2019-03-21T11:19:23.162Z,13.62
2019-03-21T11:20:30.628Z,12.33
2019-03-21T11:21:35.694Z,16.82
2019-03-21T11:22:40.986Z,13.45
2019-03-21T11:23:46.087Z,15.68
2019-03-21T11:24:51.300Z,14.33
2019-03-21T11:25:56.331Z,17.55
2019-03-21T11:27:01.380Z,14.20
2019-03-21T11:28:07.173Z,17.95
2019-03-21T11:29:12.559Z,15.40
2019-03-21T11:30:20.610Z,14.93
2019-03-21T11:31:25.661Z,17.20
2019-03-21T11:32:30.598Z,14.53
2019-03-21T11:33:35.681Z,14.15
2019-03-21T11:34:43.787Z,15.83
2019-03-21T11:35:48.855Z,13.62
2019-03-21T11:36:54.177Z,18.02
2019-03-21T11:37:59.248Z,17.48
2019-03-21T11:39:06.856Z,13.80
2019-03-21T11:40:11.884Z,11.00
2019-03-21T11:41:16.924Z,14.23
2019-03-21T11:42:22.100Z,12.45
2019-03-21T11:43:27.321Z,15.55
2019-03-21T11:44:32.323Z,15.15
2019-03-21T11:45:37.538Z,13.25
2019-03-21T11:46:42.678Z,13.98
2019-03-21T11:47:47.657Z,14.83
2019-03-21T11:48:52.850Z,14.93
2019-03-21T11:49:57.965Z,11.95
2019-03-21T11:51:03.054Z,12.98
2019-03-21T11:52:17.686Z,14.33
2019-03-21T11:53:15.351Z,13.50
2019-03-21T11:54:20.520Z,13.43
2019-03-21T11:55:25.559Z,15.05
2019-03-21T11:56:30.807Z,12.43
2019-03-21T11:57:36.277Z,17.15
2019-03-21T11:58:41.353Z,12.23
2019-03-21T11:59:51.619Z,15.58
2019-03-21T12:00:53.118Z,15.95
2019-03-21T12:01:58.147Z,15.35
2019-03-21T12:03:04.407Z,14.98
2019-03-21T12:04:09.644Z,13.30
2019-03-21T12:05:15.179Z,13.93
2019-03-21T12:06:20.398Z,12.28
2019-03-21T12:07:25.368Z,13.55
2019-03-21T12:08:30.513Z,12.53
2019-03-21T12:09:35.581Z,13.88
2019-03-21T12:10:40.749Z,11.43
2019-03-21T12:11:45.795Z,11.80
2019-03-21T12:12:50.852Z,12.58
2019-03-21T12:13:56.108Z,11.63
2019-03-21T12:15:01.184Z,14.95
2019-03-21T12:16:06.893Z,14.35
2019-03-21T12:17:14.794Z,14.15
2019-03-21T12:18:19.772Z,13.53
2019-03-21T12:19:24.836Z,12.30
2019-03-21T12:20:36.238Z,11.63
2019-03-21T12:21:41.278Z,13.90
2019-03-21T12:22:47.357Z,13.38
2019-03-21T12:23:52.590Z,12.13
2019-03-21T12:24:57.609Z,13.62
2019-03-21T12:26:02.625Z,15.15
2019-03-21T12:27:07.802Z,14.80
2019-03-21T12:28:13.017Z,13.25
2019-03-21T12:29:17.991Z,12.18
2019-03-21T12:30:39.552Z,15.23
2019-03-21T12:31:44.581Z,14.60
2019-03-21T12:32:49.727Z,13.53
2019-03-21T12:33:54.746Z,13.25
2019-03-21T12:34:59.722Z,14.80
2019-03-21T12:36:04.704Z,13.53
2019-03-21T12:37:09.821Z,14.98
2019-03-21T12:38:14.842Z,15.48
2019-03-21T12:39:19.859Z,13.45
2019-03-21T12:40:24.749Z,14.28
2019-03-21T12:41:29.664Z,16.85
2019-03-21T12:42:34.738Z,16.80
2019-03-21T12:43:39.784Z,14.73
2019-03-21T12:44:44.826Z,14.85
2019-03-21T12:45:49.937Z,14.87
2019-03-21T12:46:55.031Z,15.32
2019-03-21T12:47:59.969Z,14.93
2019-03-21T12:49:05.191Z,11.73
2019-03-21T12:50:10.510Z,14.87
2019-03-21T12:51:15.556Z,13.15
2019-03-21T12:52:20.661Z,15.23
2019-03-21T12:53:25.867Z,17.80
2019-03-21T12:54:31.309Z,17.27
2019-03-21T12:55:36.334Z,16.77
2019-03-21T12:56:41.316Z,17.42
2019-03-21T12:57:46.376Z,16.37
2019-03-21T12:58:54.427Z,15.80
2019-03-21T12:59:59.436Z,15.70
2019-03-21T13:01:04.981Z,14.38
2019-03-21T13:02:10.084Z,14.68
2019-03-21T13:03:15.209Z,17.25
2019-03-21T13:04:20.300Z,13.93
2019-03-21T13:05:29.013Z,16.37
2019-03-21T13:06:34.006Z,14.78
2019-03-21T13:07:39.111Z,13.78
2019-03-21T13:08:44.234Z,12.85
2019-03-21T13:09:51.383Z,15.75
2019-03-21T13:11:00.710Z,14.47
2019-03-21T13:12:05.199Z,14.95
2019-03-21T13:13:10.253Z,13.80
2019-03-21T13:14:15.626Z,12.47
2019-03-21T13:15:29.445Z,15.45
2019-03-21T13:16:27.477Z,14.25
2019-03-21T13:17:32.825Z,15.32
2019-03-21T13:18:37.882Z,12.88
2019-03-21T13:19:43.072Z,12.65
2019-03-21T13:20:48.309Z,13.85
2019-03-21T13:21:53.349Z,13.18
2019-03-21T13:22:59.001Z,15.35
2019-03-21T13:24:04.387Z,12.70
2019-03-21T13:25:12.598Z,13.83
2019-03-21T13:26:18.028Z,15.32
2019-03-21T13:27:23.560Z,15.50
2019-03-21T13:28:29.009Z,15.35
2019-03-21T13:29:34.446Z,13.15
2019-03-21T13:30:40.234Z,13.58
2019-03-21T13:31:46.356Z,10.03
2019-03-21T13:32:51.831Z,12.47
2019-03-21T13:33:57.567Z,12.95
2019-03-21T13:35:03.184Z,17.12
2019-03-21T13:36:08.912Z,15.25
2019-03-21T13:37:15.498Z,10.40
2019-03-21T13:38:20.956Z,12.18
2019-03-21T13:39:26.310Z,12.25
2019-03-21T13:40:31.827Z,14.07
2019-03-21T13:41:37.174Z,11.03
2019-03-21T13:42:42.735Z,13.75
2019-03-21T13:43:48.215Z,12.50
2019-03-21T13:44:53.650Z,14.18
2019-03-21T13:45:59.668Z,13.28
2019-03-21T13:47:05.024Z,12.43
2019-03-21T13:48:10.506Z,12.05
2019-03-21T13:49:16.575Z,14.20
2019-03-21T13:50:22.095Z,11.65
2019-03-21T13:51:27.431Z,14.45
2019-03-21T13:52:32.921Z,11.68
2019-03-21T13:53:38.400Z,13.65
2019-03-21T13:54:43.968Z,12.88
2019-03-21T13:55:50.446Z,16.00
2019-03-21T13:56:55.755Z,20.70
2019-03-21T13:58:03.912Z,13.25
2019-03-21T13:59:10.338Z,13.85
2019-03-21T14:00:19.668Z,12.10
2019-03-21T14:01:29.873Z,12.45
2019-03-21T14:02:35.311Z,16.02
2019-03-21T14:03:40.886Z,14.75
2019-03-21T14:04:47.053Z,13.15
2019-03-21T14:05:55.117Z,15.25
2019-03-21T14:06:59.792Z,11.10
2019-03-21T14:08:05.341Z,13.98
2019-03-21T14:09:11.139Z,13.30
2019-03-21T14:10:16.947Z,10.68